Time;durP1;ratioP1;P1;durP2;ratioP2;P2;SDS_P1;SDS_P2;PMS_P1;PMS_P2;Temp;Humidity;BMP_temperature;BMP_pressure;BME280_temperature;BME280_humidity;BME280_pressure;Samples;Min_cycle;Max_cycle;Signal;HPM_P1;HPM_P2
2022/11/30 00:00:36;;;;;;;81.35;26.60;;;;;;;5.69;100.00;101912.59;10415572;28;20087;-64
2022/11/30 00:05:37;;;;;;;92.07;29.58;;;;;;;5.72;100.00;101922.09;10414884;28;20045;-64
2022/11/30 00:10:41;;;;;;;88.50;27.85;;;;;;;5.73;100.00;101924.66;10414737;28;20054;-64
2022/11/30 00:15:43;;;;;;;74.38;24.40;;;;;;;5.70;100.00;101921.22;10414793;28;20055;-64
2022/11/30 00:20:45;;;;;;;91.88;28.77;;;;;;;5.72;100.00;101922.09;10414501;28;20055;-64
2022/11/30 00:25:48;;;;;;;90.85;29.88;;;;;;;5.73;100.00;101926.38;10412206;28;20056;-64
2022/11/30 00:30:58;;;;;;;87.43;28.60;;;;;;;5.72;100.00;101929.84;10414377;28;20063;-64
2022/11/30 00:36:02;;;;;;;106.82;30.52;;;;;;;5.74;100.00;101925.50;10413864;28;20489;-63
2022/11/30 00:41:07;;;;;;;97.80;27.88;;;;;;;5.73;100.00;101926.38;10413983;28;20504;-63
2022/11/30 00:46:10;;;;;;;102.00;27.45;;;;;;;5.73;100.00;101924.66;10413864;28;20049;-63
2022/11/30 00:51:12;;;;;;;;;;;;;;;5.71;100.00;101928.97;10414232;28;20102;-63
2022/11/30 00:56:15;;;;;;;82.82;26.20;;;;;;;5.73;100.00;101926.38;10410818;28;19959;-64
2022/11/30 01:01:17;;;;;;;74.95;25.70;;;;;;;5.72;100.00;101935.03;10413248;28;20103;-65
2022/11/30 01:06:20;;;;;;;87.55;28.98;;;;;;;5.73;100.00;101935.03;10412713;28;20456;-64
2022/11/30 01:11:26;;;;;;;94.18;28.58;;;;;;;5.72;100.00;101935.91;10412995;28;20054;-71
2022/11/30 01:16:31;;;;;;;79.78;24.77;;;;;;;5.74;100.00;101941.06;10412513;28;20064;-71
2022/11/30 01:21:33;;;;;;;91.80;28.10;;;;;;;5.74;100.00;101941.06;10413190;28;20059;-70
2022/11/30 01:26:37;;;;;;;95.22;28.10;;;;;;;5.74;100.00;101938.47;10412016;28;20111;-70
2022/11/30 01:31:38;;;;;;;76.95;25.40;;;;;;;5.73;100.00;101950.56;10412514;28;20064;-71
2022/11/30 01:36:40;;;;;;;78.00;24.83;;;;;;;5.75;100.00;101942.81;10411990;28;20506;-70
2022/11/30 01:41:43;;;;;;;73.13;22.95;;;;;;;5.72;100.00;101942.81;10412030;28;20518;-70
2022/11/30 01:46:55;;;;;;;71.28;25.27;;;;;;;5.73;100.00;101944.53;10411452;28;20440;-70
2022/11/30 01:52:02;;;;;;;76.43;25.60;;;;;;;5.72;100.00;101945.41;10411815;28;20053;-70
2022/11/30 01:57:13;;;;;;;68.88;24.17;;;;;;;5.72;100.00;101950.56;10410022;28;20558;-70
2022/11/30 02:02:16;;;;;;;72.78;23.90;;;;;;;5.71;100.00;101964.41;10411355;28;20083;-70
2022/11/30 02:07:18;;;;;;;59.70;22.10;;;;;;;5.70;100.00;101952.28;10411230;28;20133;-70
2022/11/30 02:12:35;;;;;;;74.55;22.92;;;;;;;5.71;100.00;101956.63;10411590;28;20107;-63
2022/11/30 02:17:52;;;;;;;67.05;22.90;;;;;;;5.71;100.00;101961.81;10411352;28;20045;-64
2022/11/30 02:23:28;;;;;;;62.58;22.42;;;;;;;5.72;100.00;101958.34;10409004;28;20142;-64
2022/11/30 02:28:55;;;;;;;62.88;20.38;;;;;;;5.71;100.00;101964.41;10411642;28;20074;-65
2022/11/30 02:34:00;;;;;;;59.78;19.75;;;;;;;5.72;100.00;101969.59;10419425;28;20053;-64
2022/11/30 02:39:02;;;;;;;51.60;18.80;;;;;;;5.70;100.00;101960.06;10418613;28;20081;-64
2022/11/30 02:44:08;;;;;;;53.47;19.65;;;;;;;5.71;100.00;101959.22;10418679;28;20096;-64
2022/11/30 02:49:20;;;;;;;46.28;19.90;;;;;;;5.71;100.00;101967.00;10418084;28;20104;-64
2022/11/30 02:54:22;;;;;;;59.47;19.58;;;;;;;5.69;100.00;101973.91;10415699;28;20069;-64
2022/11/30 02:59:26;;;;;;;49.70;18.50;;;;;;;5.66;100.00;101978.22;10417655;28;20208;-64
2022/11/30 03:04:27;;;;;;;55.50;18.90;;;;;;;5.69;100.00;101973.91;10418340;28;20083;-64
2022/11/30 03:09:29;;;;;;;44.55;18.95;;;;;;;5.65;100.00;101973.91;10417410;28;20049;-63
2022/11/30 03:14:32;;;;;;;49.80;18.85;;;;;;;5.63;100.00;101970.47;10416892;28;20082;-69
2022/11/30 03:19:34;;;;;;;45.72;18.20;;;;;;;5.58;100.00;101972.19;10416976;28;20310;-70
2022/11/30 03:24:36;;;;;;;40.40;18.92;;;;;;;5.58;100.00;101977.38;10414440;28;20069;-70
2022/11/30 03:29:40;;;;;;;39.30;18.08;;;;;;;5.57;100.00;101980.84;10417064;28;20059;-70
2022/11/30 03:34:42;;;;;;;42.42;16.70;;;;;;;5.56;100.00;101976.53;10416357;28;20107;-71
2022/11/30 03:39:43;;;;;;;47.45;18.45;;;;;;;5.56;100.00;101971.34;10416322;28;20067;-71
2022/11/30 03:44:46;;;;;;;40.25;16.90;;;;;;;5.53;100.00;101968.75;10415842;28;20054;-66
2022/11/30 03:49:48;;;;;;;35.47;17.55;;;;;;;5.49;100.00;101972.22;10415706;28;20057;-65
2022/11/30 03:54:50;;;;;;;37.47;16.60;;;;;;;5.41;100.00;101969.69;10413067;28;20057;-65
2022/11/30 03:59:53;;;;;;;35.58;15.65;;;;;;;5.37;100.00;101983.50;10415297;28;20613;-64
2022/11/30 04:04:54;;;;;;;35.55;16.50;;;;;;;5.33;100.00;101981.78;10415447;28;20080;-64
2022/11/30 04:09:56;;;;;;;35.17;16.38;;;;;;;5.30;100.00;101982.63;10415649;28;20060;-64
2022/11/30 04:14:59;;;;;;;33.45;16.95;;;;;;;5.28;100.00;101979.19;10415089;28;20106;-64
2022/11/30 04:20:00;;;;;;;39.03;15.93;;;;;;;5.26;100.00;101975.72;10414914;28;20105;-65
2022/11/30 04:25:03;;;;;;;40.38;15.63;;;;;;;5.26;100.00;101973.16;10412422;28;20088;-65
2022/11/30 04:30:07;;;;;;;;;;;;;;;5.23;100.00;101976.59;10414765;28;20061;-65
2022/11/30 04:35:10;;;;;;;36.25;16.80;;;;;;;5.27;100.00;101980.06;10414133;28;19921;-63
2022/11/30 04:40:13;;;;;;;28.05;15.82;;;;;;;5.27;100.00;101977.47;10414004;28;20066;-64
2022/11/30 04:45:17;;;;;;;37.67;17.20;;;;;;;5.29;100.00;101980.91;10413676;28;20084;-65
2022/11/30 04:50:18;;;;;;;43.58;16.92;;;;;;;5.29;100.00;101980.91;10413526;28;20468;-64
2022/11/30 04:55:20;;;;;;;42.03;17.27;;;;;;;5.30;100.00;101986.97;10410865;28;20060;-64
2022/11/30 05:00:25;;;;;;;43.22;17.95;;;;;;;5.29;100.00;101999.03;10412977;28;20061;-64
2022/11/30 05:05:27;;;;;;;33.28;16.35;;;;;;;5.25;100.00;101993.00;10412958;28;20050;-64
2022/11/30 05:10:32;;;;;;;36.10;16.50;;;;;;;5.22;100.00;101989.53;10413067;28;20064;-64
2022/11/30 05:15:35;;;;;;;38.38;15.32;;;;;;;5.18;100.00;101993.88;10412986;28;20072;-64
2022/11/30 05:20:37;;;;;;;35.17;15.48;;;;;;;5.13;100.00;102001.63;10412621;28;20049;-64
2022/11/30 05:25:38;;;;;;;34.17;14.35;;;;;;;5.11;100.00;101998.19;10409895;28;20137;-64
2022/11/30 05:30:43;;;;;;;35.15;15.20;;;;;;;5.10;100.00;102000.78;10412308;28;20049;-64
2022/11/30 05:35:44;;;;;;;33.53;15.15;;;;;;;5.03;100.00;101999.91;10412681;28;20433;-64
2022/11/30 05:40:46;;;;;;;36.63;15.40;;;;;;;4.98;100.00;102001.63;10411852;28;20123;-64
2022/11/30 05:45:49;;;;;;;27.30;13.73;;;;;;;4.96;100.00;102008.56;10411701;28;20075;-64
2022/11/30 05:50:51;;;;;;;28.70;15.52;;;;;;;4.97;100.00;102005.09;10412045;28;20072;-64
2022/11/30 05:55:52;;;;;;;28.92;13.95;;;;;;;4.97;100.00;102010.28;10408923;28;20056;-65
2022/11/30 06:00:55;;;;;;;37.58;15.82;;;;;;;4.96;100.00;102021.50;10411465;28;20049;-64
2022/11/30 06:05:57;;;;;;;37.25;17.02;;;;;;;5.00;100.00;102025.81;10415148;28;20049;-64
2022/11/30 06:11:01;;;;;;;43.50;16.30;;;;;;;4.98;100.00;102019.75;10413860;28;20421;-64
2022/11/30 06:16:06;;;;;;;46.28;17.13;;;;;;;4.98;100.00;102022.34;10418901;28;20406;-65
2022/11/30 06:21:11;;;;;;;42.65;15.98;;;;;;;4.97;100.00;102023.22;10419024;28;20063;-64
2022/11/30 06:26:13;;;;;;;41.85;17.50;;;;;;;4.96;100.00;102035.28;10416614;28;20057;-66
2022/11/30 06:31:16;;;;;;;43.05;16.13;;;;;;;4.97;100.00;102034.44;10419465;28;20086;-65
2022/11/30 06:36:22;;;;;;;44.15;17.40;;;;;;;5.01;100.00;102030.97;10419182;28;20045;-65
2022/11/30 06:41:26;;;;;;;38.72;17.83;;;;;;;5.01;100.00;102027.53;10418272;28;20096;-65
2022/11/30 06:46:29;;;;;;;41.50;19.40;;;;;;;4.99;100.00;102030.09;10418354;28;20408;-65
2022/11/30 06:51:30;;;;;;;50.72;20.95;;;;;;;4.99;100.00;102037.88;10417779;28;20413;-65
2022/11/30 06:56:32;;;;;;;40.00;19.52;;;;;;;4.98;100.00;102045.63;10415721;28;20433;-65
2022/11/30 07:01:36;;;;;;;39.65;18.75;;;;;;;5.02;100.00;102044.75;10415575;28;20138;-65
2022/11/30 07:06:38;;;;;;;42.78;19.52;;;;;;;5.03;100.00;102049.06;10415112;28;20511;-65
2022/11/30 07:11:41;;;;;;;48.45;18.95;;;;;;;5.05;100.00;102051.66;10412973;28;20055;-66
2022/11/30 07:16:44;;;;;;;41.05;19.88;;;;;;;5.05;100.00;102055.13;10414617;28;20067;-65
2022/11/30 07:21:46;;;;;;;42.00;20.25;;;;;;;5.05;100.00;102062.00;10414882;28;20053;-65
2022/11/30 07:26:48;;;;;;;55.85;21.05;;;;;;;5.06;100.00;102067.19;10412544;28;20049;-64
2022/11/30 07:31:52;;;;;;;50.95;20.00;;;;;;;5.06;100.00;102072.38;10414621;28;20059;-65
2022/11/30 07:36:54;;;;;;;46.78;19.80;;;;;;;5.09;100.00;102072.38;10414579;28;20073;-65
2022/11/30 07:41:56;;;;;;;53.33;21.30;;;;;;;5.11;100.00;102086.19;10414327;28;20065;-65
2022/11/30 07:46:59;;;;;;;44.50;19.90;;;;;;;5.14;100.00;102086.16;10414568;28;20050;-68
2022/11/30 07:52:03;;;;;;;51.20;20.77;;;;;;;5.20;100.00;102095.66;10413768;28;20053;-69
2022/11/30 07:57:05;;;;;;;46.22;20.40;;;;;;;5.26;100.00;102094.78;10411052;28;20101;-69
2022/11/30 08:02:10;;;;;;;40.20;18.03;;;;;;;5.33;100.00;102091.34;10378699;28;1060411;-69
2022/11/30 08:07:12;;;;;;;48.85;20.75;;;;;;;5.41;100.00;102094.78;10415269;28;20342;-70
2022/11/30 08:12:13;;;;;;;58.20;22.52;;;;;;;5.41;100.00;102101.72;10415193;28;20099;-70
2022/11/30 08:17:17;;;;;;;56.83;22.33;;;;;;;5.48;100.00;102102.56;10415230;28;20172;-69
2022/11/30 08:22:19;;;;;;;56.17;22.70;;;;;;;5.44;100.00;102103.44;10414745;28;20049;-70
2022/11/30 08:27:20;;;;;;;59.83;22.98;;;;;;;5.58;100.00;102117.22;10413217;28;20109;-68
2022/11/30 08:32:23;;;;;;;57.95;22.13;;;;;;;5.50;100.00;102113.78;10416372;28;20558;-68
2022/11/30 08:37:25;;;;;;;50.97;21.60;;;;;;;5.52;100.00;102127.59;10414491;28;20103;-69
2022/11/30 08:42:27;;;;;;;59.60;23.90;;;;;;;5.61;100.00;102125.00;10415246;28;20689;-69
2022/11/30 08:47:31;;;;;;;62.20;23.00;;;;;;;5.82;100.00;102132.75;10414755;28;20115;-70
2022/11/30 08:52:32;;;;;;;61.70;22.02;;;;;;;5.91;100.00;102136.19;10412674;28;20056;-70
2022/11/30 08:57:34;;;;;;;60.17;22.88;;;;;;;5.97;100.00;102139.63;10412838;28;20046;-70
2022/11/30 09:02:37;;;;;;;53.13;22.02;;;;;;;5.96;100.00;102131.00;10413236;28;20087;-70
2022/11/30 09:07:39;;;;;;;61.25;23.33;;;;;;;5.89;100.00;102145.66;10412874;28;20110;-70
2022/11/30 09:12:42;;;;;;;50.63;22.27;;;;;;;5.97;100.00;102152.56;10412871;28;20122;-70
2022/11/30 09:17:45;;;;;;;61.30;24.05;;;;;;;6.25;100.00;102149.94;10412563;28;20121;-70
2022/11/30 09:22:47;;;;;;;62.30;24.15;;;;;;;6.41;100.00;102156.81;10410132;28;20452;-70
2022/11/30 09:27:48;;;;;;;62.17;25.75;;;;;;;6.40;100.00;102160.25;10412245;28;20049;-65
2022/11/30 09:32:51;;;;;;;63.22;26.45;;;;;;;6.72;100.00;102160.13;10411986;28;20460;-65
2022/11/30 09:37:53;;;;;;;62.10;26.48;;;;;;;6.47;100.00;102160.25;10412050;28;20052;-64
2022/11/30 09:43:08;;;;;;;65.25;29.38;;;;;;;7.31;100.00;102163.22;10412415;28;20111;-64
2022/11/30 09:48:37;;;;;;;47.03;25.63;;;;;;;7.55;100.00;102163.03;10411633;28;20408;-64
2022/11/30 09:53:44;;;;;;;42.08;22.92;;;;;;;7.46;100.00;102161.41;10409925;28;20108;-64
2022/11/30 09:58:52;;;;;;;27.75;18.73;;;;;;;7.22;100.00;102155.50;10411349;28;20053;-64
2022/11/30 10:03:57;;;;;;;28.02;17.70;;;;;;;8.35;100.00;102163.97;10411685;28;20115;-64
2022/11/30 10:09:27;;;;;;;28.92;18.83;;;;;;;7.51;100.00;102153.53;10411851;28;20136;-63
2022/11/30 10:15:03;;;;;;;30.83;19.45;;;;;;;6.87;100.00;102154.84;10411760;28;20432;-64
2022/11/30 10:20:25;;;;;;;30.15;19.63;;;;;;;6.93;100.00;102154.84;10400205;28;20049;-71
2022/11/30 10:25:41;;;;;;;25.15;18.30;;;;;;;6.75;100.00;102154.94;10408806;28;20070;-70
2022/11/30 10:30:43;;;;;;;27.17;17.83;;;;;;;6.89;100.00;102145.34;10410843;28;20103;-71
2022/11/30 10:35:51;;;;;;;28.40;18.10;;;;;;;6.87;100.00;102144.47;10411853;28;20100;-72
2022/11/30 10:41:02;;;;;;;27.77;16.75;;;;;;;6.98;100.00;102146.16;10410747;28;20460;-70
2022/11/30 10:46:05;;;;;;;24.77;16.55;;;;;;;7.01;100.00;102139.19;10410805;28;20083;-71
2022/11/30 10:51:11;;;;;;;26.52;16.38;;;;;;;7.07;100.00;102130.50;10413472;28;20053;-70
2022/11/30 10:56:15;;;;;;;22.73;15.20;;;;;;;7.01;100.00;102130.56;10416626;28;20087;-71
2022/11/30 11:01:33;;;;;;;25.42;16.98;;;;;;;7.11;100.00;102131.38;10418107;28;20088;-72
2022/11/30 11:06:44;;;;;;;23.63;15.35;;;;;;;7.13;100.00;102125.28;10417451;28;20049;-72
2022/11/30 11:11:53;;;;;;;22.10;14.13;;;;;;;7.44;100.00;102119.84;10417744;28;20553;-72
2022/11/30 11:16:58;;;;;;;18.42;13.15;;;;;;;7.64;100.00;102121.41;10418059;28;20510;-73
2022/11/30 11:22:05;;;;;;;17.83;12.02;;;;;;;7.40;100.00;102125.94;10417490;28;20049;-65
2022/11/30 11:27:07;;;;;;;19.63;11.75;;;;;;;7.59;100.00;102126.63;10414751;28;20519;-65
2022/11/30 11:32:23;;;;;;;20.17;13.23;;;;;;;7.75;100.00;102120.41;10416859;28;20049;-64
2022/11/30 11:37:29;;;;;;;27.10;15.38;;;;;;;7.45;100.00;102125.88;10417033;28;20097;-65
2022/11/30 11:42:37;;;;;;;20.52;13.75;;;;;;;7.58;100.00;102121.44;10416437;28;20050;-64
2022/11/30 11:47:44;;;;;;;23.75;16.25;;;;;;;7.56;100.00;102118.84;10415796;28;20053;-64
2022/11/30 11:52:47;;;;;;;21.35;14.63;;;;;;;7.35;100.00;102125.09;10413692;28;20046;-64
2022/11/30 11:57:58;;;;;;;18.63;12.30;;;;;;;7.87;100.00;102128.09;10414859;28;20049;-64
2022/11/30 12:03:10;;;;;;;21.50;14.43;;;;;;;7.04;100.00;102123.59;10411677;28;20060;-64
2022/11/30 12:08:26;;;;;;;26.73;16.58;;;;;;;7.16;100.00;102125.28;10415129;28;20049;-64
2022/11/30 12:13:34;;;;;;;29.20;16.95;;;;;;;6.97;100.00;102132.31;10415129;28;20492;-64
2022/11/30 12:18:49;;;;;;;27.98;16.92;;;;;;;7.08;100.00;102125.31;10415284;28;20088;-63
2022/11/30 12:24:38;;;;;;;25.73;16.50;;;;;;;7.28;100.00;102113.91;10412376;28;20091;-64
2022/11/30 12:29:53;;;;;;;26.35;16.75;;;;;;;7.46;100.00;102123.28;10412453;28;20059;-64
2022/11/30 12:35:20;;;;;;;26.20;17.55;;;;;;;7.49;100.00;102127.59;10414465;28;20363;-74
2022/11/30 12:40:39;;;;;;;24.73;16.80;;;;;;;7.31;100.00;102131.19;10414210;28;20095;-75
2022/11/30 12:45:44;;;;;;;26.65;16.33;;;;;;;7.12;100.00;102127.88;10413872;28;20104;-74
2022/11/30 12:51:09;;;;;;;25.08;15.88;;;;;;;7.78;100.00;102133.38;10413907;28;20103;-74
2022/11/30 12:56:32;;;;;;;21.67;14.85;;;;;;;7.33;100.00;102135.50;10411743;28;20079;-73
2022/11/30 13:01:52;;;;;;;22.08;13.98;;;;;;;6.95;100.00;102142.69;10413288;28;20057;-74
2022/11/30 13:07:00;;;;;;;23.65;15.38;;;;;;;7.06;100.00;102141.78;10413337;28;20538;-75
2022/11/30 13:12:10;;;;;;;23.10;16.45;;;;;;;7.76;100.00;102135.16;10413001;28;20122;-75
2022/11/30 13:17:19;;;;;;;17.58;12.52;;;;;;;7.29;100.00;102132.97;10413662;28;20060;-74
2022/11/30 13:22:32;;;;;;;22.52;15.18;;;;;;;7.48;100.00;102144.06;10413508;28;20063;-74
2022/11/30 13:27:48;;;;;;;19.48;13.30;;;;;;;7.06;100.00;102155.63;10410155;28;20045;-74
2022/11/30 13:32:50;;;;;;;22.58;14.18;;;;;;;7.11;100.00;102137.41;10412671;28;20086;-74
2022/11/30 13:38:02;;;;;;;22.98;12.80;;;;;;;6.92;100.00;102141.88;10412727;28;20065;-73
2022/11/30 13:43:14;;;;;;;20.63;14.63;;;;;;;6.62;100.00;102142.03;10412444;28;20057;-73
2022/11/30 13:48:31;;;;;;;23.92;13.82;;;;;;;6.61;100.00;102142.91;10412393;28;20111;-75
2022/11/30 13:53:36;;;;;;;22.20;14.93;;;;;;;6.81;100.00;102149.72;10410008;28;20061;-74
2022/11/30 13:59:40;;;;;;;24.02;15.10;;;;;;;6.70;100.00;102148.03;10411020;28;20088;-73
2022/11/30 14:04:45;;;;;;;26.60;17.45;;;;;;;6.56;100.00;102147.22;10410797;28;20058;-77
2022/11/30 14:09:59;;;;;;;25.27;16.35;;;;;;;6.56;100.00;102155.88;10410647;28;20144;-76
2022/11/30 14:15:23;;;;;;;22.63;15.15;;;;;;;6.62;100.00;102160.19;10410800;28;20063;-76
2022/11/30 14:20:33;;;;;;;27.35;15.15;;;;;;;6.75;100.00;102167.91;10412793;28;20464;-75
2022/11/30 14:25:36;;;;;;;24.58;14.38;;;;;;;6.72;100.00;102163.59;10416793;28;20050;-75
2022/11/30 14:30:40;;;;;;;25.10;14.82;;;;;;;6.66;100.00;102172.28;10427442;28;20053;-75
2022/11/30 14:35:46;;;;;;;21.10;13.10;;;;;;;6.54;100.00;102169.72;10422418;28;20053;-76
2022/11/30 14:40:53;;;;;;;20.48;13.02;;;;;;;6.49;100.00;102179.25;10419267;28;20421;-75
2022/11/30 14:46:02;;;;;;;20.60;13.60;;;;;;;6.40;100.00;102175.81;10419035;28;20115;-75
2022/11/30 14:51:05;;;;;;;20.10;12.90;;;;;;;6.49;100.00;102179.25;10418591;28;20107;-75
2022/11/30 14:56:22;;;;;;;22.30;13.70;;;;;;;6.39;100.00;102179.28;10416217;28;20045;-75
2022/11/30 15:01:26;;;;;;;16.27;13.50;;;;;;;6.32;100.00;102180.16;10418225;28;20057;-75
2022/11/30 15:06:33;;;;;;;22.17;15.98;;;;;;;6.21;100.00;102185.41;10418823;28;20050;-75
2022/11/30 15:11:41;;;;;;;22.02;15.02;;;;;;;6.05;100.00;102175.06;10417775;28;20057;-75
2022/11/30 15:16:49;;;;;;;23.30;15.20;;;;;;;6.01;100.00;102175.03;10417286;28;20060;-75
2022/11/30 15:21:55;;;;;;;20.50;14.65;;;;;;;5.92;100.00;102178.50;10416048;28;20052;-77
2022/11/30 15:27:01;;;;;;;20.80;13.48;;;;;;;5.82;100.00;102177.66;10414208;28;20107;-77
2022/11/30 15:32:14;;;;;;;19.98;14.27;;;;;;;5.74;100.00;102184.56;10415935;28;20118;-76
2022/11/30 15:37:19;;;;;;;28.63;15.50;;;;;;;5.62;100.00;102178.53;10415313;28;20126;-77
2022/11/30 15:42:29;;;;;;;26.15;14.65;;;;;;;5.55;100.00;102184.56;10415447;28;20157;-76
2022/11/30 15:47:38;;;;;;;19.45;14.10;;;;;;;5.39;100.00;102181.97;10415249;28;20078;-77
2022/11/30 15:52:44;;;;;;;22.63;14.52;;;;;;;5.38;100.00;102182.81;10414693;28;20045;-76
2022/11/30 15:58:01;;;;;;;18.25;10.55;;;;;;;5.17;100.00;102198.31;10414693;28;20095;-74
2022/11/30 16:03:12;;;;;;;18.75;10.48;;;;;;;4.96;100.00;102200.84;10415647;28;20880;-74
2022/11/30 16:08:18;;;;;;;17.42;9.82;;;;;;;4.95;100.00;102193.09;10415025;28;20575;-72
2022/11/30 16:13:22;;;;;;;11.45;8.13;;;;;;;5.13;100.00;102193.13;10414111;28;20181;-73
2022/11/30 16:18:26;;;;;;;11.77;7.25;;;;;;;5.17;100.00;102200.91;10413832;28;20136;-73
2022/11/30 16:23:33;;;;;;;9.85;7.28;;;;;;;5.21;100.00;102205.25;10411598;28;20050;-73
2022/11/30 16:28:34;;;;;;;11.43;8.00;;;;;;;5.24;100.00;102215.59;10413623;28;20084;-74
2022/11/30 16:33:36;;;;;;;10.23;7.85;;;;;;;5.27;100.00;102220.78;10414773;28;20064;-75
2022/11/30 16:38:39;;;;;;;15.65;9.25;;;;;;;5.26;100.00;102219.91;10413180;28;20080;-74
2022/11/30 16:43:42;;;;;;;16.77;9.90;;;;;;;5.29;100.00;102219.06;10413262;28;20060;-75
2022/11/30 16:48:43;;;;;;;;;;;;;;;5.36;100.00;102223.38;10412861;28;20591;-77
2022/11/30 16:53:47;;;;;;;13.05;8.93;;;;;;;5.33;100.00;102231.16;10410988;28;19925;-75
2022/11/30 16:58:49;;;;;;;14.05;9.70;;;;;;;5.31;100.00;102235.47;10412604;28;20098;-76
2022/11/30 17:03:51;;;;;;;19.85;10.23;;;;;;;5.27;100.00;102236.31;10412620;28;20049;-74
2022/11/30 17:08:54;;;;;;;15.32;10.40;;;;;;;5.28;100.00;102245.81;10411847;28;20092;-75
2022/11/30 17:13:56;;;;;;;18.05;10.10;;;;;;;5.19;100.00;102248.34;10411991;28;20061;-75
2022/11/30 17:18:58;;;;;;;13.23;9.40;;;;;;;5.19;100.00;102254.41;10412005;28;20496;-74
2022/11/30 17:24:01;;;;;;;14.48;10.07;;;;;;;5.14;100.00;102251.81;10411215;28;20090;-74
2022/11/30 17:29:03;;;;;;;17.55;10.18;;;;;;;5.12;100.00;102248.34;10412034;28;20103;-74
2022/11/30 17:34:07;;;;;;;16.67;10.45;;;;;;;5.08;100.00;102251.78;10412365;28;20108;-74
2022/11/30 17:39:10;;;;;;;14.63;10.00;;;;;;;5.08;100.00;102254.38;10412302;28;20060;-74
2022/11/30 17:44:12;;;;;;;22.58;15.20;;;;;;;5.01;100.00;102257.81;10412072;28;20064;-75
2022/11/30 17:49:14;;;;;;;16.38;10.95;;;;;;;5.02;100.00;102256.94;10411115;28;20045;-75
2022/11/30 17:54:17;;;;;;;19.45;11.38;;;;;;;4.97;100.00;102253.47;10409747;28;20334;-75
2022/11/30 17:59:19;;;;;;;17.83;11.02;;;;;;;4.97;100.00;102258.66;10412399;28;20145;-74
2022/11/30 18:04:20;;;;;;;18.35;10.77;;;;;;;4.94;100.00;102263.81;10419285;28;20096;-74
2022/11/30 18:09:23;;;;;;;12.68;9.35;;;;;;;4.92;100.00;102252.59;10419169;28;20046;-74
2022/11/30 18:14:25;;;;;;;22.30;11.18;;;;;;;4.96;100.00;102267.28;10418397;28;20072;-74
2022/11/30 18:19:27;;;;;;;19.55;11.57;;;;;;;4.94;100.00;102269.84;10418930;28;20049;-73
2022/11/30 18:24:30;;;;;;;19.60;11.80;;;;;;;4.96;100.00;102267.28;10415884;28;20127;-73
2022/11/30 18:29:31;;;;;;;18.13;12.40;;;;;;;5.07;100.00;102273.38;10418467;28;20046;-73
2022/11/30 18:34:34;;;;;;;23.00;13.85;;;;;;;5.05;100.00;102280.25;10418550;28;20500;-73
2022/11/30 18:39:37;;;;;;;16.60;11.02;;;;;;;5.03;100.00;102294.88;10418078;28;20197;-74
2022/11/30 18:44:40;;;;;;;21.58;12.80;;;;;;;5.06;100.00;102297.50;10417958;28;20547;-73
2022/11/30 18:49:42;;;;;;;20.92;12.68;;;;;;;5.10;100.00;102296.66;10417383;28;20111;-74
2022/11/30 18:54:45;;;;;;;21.85;13.43;;;;;;;5.17;100.00;102302.72;10410858;28;20069;-73
2022/11/30 18:59:48;;;;;;;25.13;16.90;;;;;;;5.08;100.00;102303.56;10417087;28;20057;-74
2022/11/30 19:04:50;;;;;;;22.25;14.18;;;;;;;5.08;100.00;102300.97;10417547;28;20053;-74
2022/11/30 19:09:53;;;;;;;20.73;13.05;;;;;;;5.02;100.00;102306.97;10416645;28;20045;-74
2022/11/30 19:14:55;;;;;;;17.27;10.98;;;;;;;4.94;100.00;102307.78;10416580;28;20130;-74
2022/11/30 19:19:57;;;;;;;19.75;13.18;;;;;;;4.86;100.00;102307.78;10416458;28;20606;-72
2022/11/30 19:25:01;;;;;;;22.35;13.23;;;;;;;4.80;100.00;102300.84;10413677;28;20089;-73
2022/11/30 19:30:04;;;;;;;17.85;11.50;;;;;;;4.62;100.00;102299.88;10416400;28;20082;-73
2022/11/30 19:35:08;;;;;;;22.38;12.55;;;;;;;4.41;100.00;102300.59;10415535;28;20049;-73
2022/11/30 19:40:13;;;;;;;31.13;14.60;;;;;;;4.51;100.00;102301.50;10415058;28;20049;-73
2022/11/30 19:45:14;;;;;;;20.02;13.55;;;;;;;4.56;100.00;102305.00;10415082;28;20111;-73
2022/11/30 19:50:16;;;;;;;29.98;15.45;;;;;;;4.67;100.00;102311.94;10414850;28;20498;-73
2022/11/30 19:55:19;;;;;;;19.50;13.05;;;;;;;4.74;100.00;102309.44;10412266;28;20058;-72
2022/11/30 20:00:21;;;;;;;28.30;14.43;;;;;;;4.79;100.00;102319.78;10414337;28;20050;-73
2022/11/30 20:05:23;;;;;;;19.45;12.90;;;;;;;4.83;100.00;102328.44;10414342;28;20063;-73
2022/11/30 20:10:26;;;;;;;21.10;13.13;;;;;;;4.86;100.00;102323.28;10414069;28;20115;-73
2022/11/30 20:15:27;;;;;;;20.50;13.00;;;;;;;4.87;100.00;102327.59;10414229;28;20049;-73
2022/11/30 20:20:29;;;;;;;20.60;15.13;;;;;;;4.87;100.00;102331.06;10413730;28;20057;-74
2022/11/30 20:25:34;;;;;;;21.83;14.32;;;;;;;4.89;100.00;102334.50;10410008;28;20786;-74
2022/11/30 20:30:36;;;;;;;21.55;14.18;;;;;;;4.93;100.00;102331.94;10415150;28;20054;-74
2022/11/30 20:35:37;;;;;;;21.20;13.60;;;;;;;4.96;100.00;102324.19;10414883;28;20587;-73
2022/11/30 20:40:46;;;;;;;27.67;15.35;;;;;;;4.94;100.00;102326.78;10414312;28;20353;-73
2022/11/30 20:45:47;;;;;;;21.75;14.10;;;;;;;4.89;100.00;102331.91;10414677;28;20094;-74
2022/11/30 20:50:49;;;;;;;26.90;14.40;;;;;;;4.88;100.00;102332.78;10418571;28;20106;-73
2022/11/30 20:55:52;;;;;;;20.67;13.27;;;;;;;4.89;100.00;102334.50;10418001;28;20052;-73
2022/11/30 21:00:54;;;;;;;20.58;14.05;;;;;;;4.89;100.00;102334.50;10413253;28;20102;-74
2022/11/30 21:05:55;;;;;;;20.52;13.77;;;;;;;4.90;100.00;102338.81;10412665;28;20053;-73
2022/11/30 21:11:02;;;;;;;21.40;15.77;;;;;;;4.92;100.00;102340.56;10413427;28;20058;-73
2022/11/30 21:16:07;;;;;;;25.55;17.40;;;;;;;4.87;100.00;102351.75;10413053;28;20296;-74
2022/11/30 21:21:13;;;;;;;21.30;15.15;;;;;;;4.85;100.00;102355.16;10412209;28;20506;-75
2022/11/30 21:26:20;;;;;;;25.15;15.75;;;;;;;4.92;100.00;102343.16;10410791;28;20049;-73
2022/11/30 21:31:23;;;;;;;18.60;13.75;;;;;;;4.88;100.00;102353.47;10412215;28;20053;-73
2022/11/30 21:36:26;;;;;;;20.30;14.73;;;;;;;4.92;100.00;102344.00;10412364;28;20053;-66
2022/11/30 21:41:30;;;;;;;21.73;13.98;;;;;;;4.91;100.00;102337.09;10411847;28;20049;-65
2022/11/30 21:46:32;;;;;;;25.90;15.57;;;;;;;4.90;100.00;102336.22;10411430;28;20463;-65
2022/11/30 21:51:34;;;;;;;27.48;15.40;;;;;;;4.88;100.00;102340.53;10410952;28;20461;-65
2022/11/30 21:56:40;;;;;;;22.58;15.13;;;;;;;4.85;100.00;102342.22;10409312;28;20109;-65
2022/11/30 22:01:43;;;;;;;29.25;17.73;;;;;;;4.81;100.00;102336.19;10411567;28;20566;-65
2022/11/30 22:06:45;;;;;;;27.95;17.00;;;;;;;4.68;100.00;102335.25;10411142;28;20045;-66
2022/11/30 22:11:48;;;;;;;24.52;15.20;;;;;;;4.69;100.00;102346.47;10411416;28;20143;-66
2022/11/30 22:16:50;;;;;;;33.58;20.40;;;;;;;4.46;100.00;102349.75;10411212;28;20115;-65
2022/11/30 22:21:56;;;;;;;29.92;17.08;;;;;;;4.49;100.00;102353.22;10411370;28;20071;-67
2022/11/30 22:26:59;;;;;;;30.17;18.27;;;;;;;4.35;100.00;102353.09;10408788;28;20049;-67
2022/11/30 22:32:01;;;;;;;28.20;19.08;;;;;;;4.29;100.00;102358.25;10410993;28;20559;-66
2022/11/30 22:37:02;;;;;;;38.10;20.23;;;;;;;4.32;100.00;102357.41;10411468;28;20059;-68
2022/11/30 22:42:06;;;;;;;28.70;17.88;;;;;;;4.29;100.00;102362.53;10410702;28;20318;-66
2022/11/30 22:47:07;;;;;;;26.13;17.75;;;;;;;4.24;100.00;102359.91;10413861;28;20192;-66
2022/11/30 22:52:09;;;;;;;34.33;20.98;;;;;;;4.19;100.00;102377.09;10418269;28;20054;-67